sensor_id;sensor_type;location;lat;lon;timestamp;temperature;humidity
17529;DHT22;8882;53.192;8.184;2022-11-02T05:30:34;11.00;99.90
17529;DHT22;8882;53.192;8.184;2022-11-02T05:33:00;11.30;99.90
17529;DHT22;8882;53.192;8.184;2022-11-02T05:35:27;11.20;99.90
17529;DHT22;8882;53.192;8.184;2022-11-02T05:37:54;11.10;99.90
17529;DHT22;8882;53.192;8.184;2022-11-02T05:40:19;11.10;99.90
17529;DHT22;8882;53.192;8.184;2022-11-02T05:42:45;11.00;99.90
17529;DHT22;8882;53.192;8.184;2022-11-02T05:45:10;11.00;99.90
17529;DHT22;8882;53.192;8.184;2022-11-02T05:47:36;11.00;99.90
17529;DHT22;8882;53.192;8.184;2022-11-02T05:50:01;11.00;99.90
17529;DHT22;8882;53.192;8.184;2022-11-02T05:52:27;11.00;99.90
17529;DHT22;8882;53.192;8.184;2022-11-02T05:54:52;11.00;99.90
17529;DHT22;8882;53.192;8.184;2022-11-02T05:57:18;10.90;99.90
17529;DHT22;8882;53.192;8.184;2022-11-02T05:59:43;10.90;99.90
17529;DHT22;8882;53.192;8.184;2022-11-02T06:02:09;10.90;99.90
17529;DHT22;8882;53.192;8.184;2022-11-02T06:04:34;11.00;99.90
17529;DHT22;8882;53.192;8.184;2022-11-02T06:07:00;11.00;99.90
17529;DHT22;8882;53.192;8.184;2022-11-02T06:09:25;11.00;99.90
17529;DHT22;8882;53.192;8.184;2022-11-02T06:11:51;11.00;99.90
17529;DHT22;8882;53.192;8.184;2022-11-02T06:14:17;11.00;99.90
17529;DHT22;8882;53.192;8.184;2022-11-02T06:16:42;11.00;99.90
17529;DHT22;8882;53.192;8.184;2022-11-02T06:19:08;11.00;99.90
17529;DHT22;8882;53.192;8.184;2022-11-02T06:21:33;11.00;99.90
17529;DHT22;8882;53.192;8.184;2022-11-02T06:23:59;11.00;99.90
17529;DHT22;8882;53.192;8.184;2022-11-02T06:26:24;11.00;99.90
17529;DHT22;8882;53.192;8.184;2022-11-02T06:28:50;11.00;99.90
17529;DHT22;8882;53.192;8.184;2022-11-02T06:31:15;11.10;99.90
17529;DHT22;8882;53.192;8.184;2022-11-02T06:33:42;11.10;99.90
17529;DHT22;8882;53.192;8.184;2022-11-02T06:36:08;11.10;99.90
17529;DHT22;8882;53.192;8.184;2022-11-02T06:38:34;11.10;99.90
17529;DHT22;8882;53.192;8.184;2022-11-02T06:41:01;11.10;99.90
17529;DHT22;8882;53.192;8.184;2022-11-02T06:43:28;11.10;99.90
17529;DHT22;8882;53.192;8.184;2022-11-02T06:45:55;11.20;99.90
17529;DHT22;8882;53.192;8.184;2022-11-02T06:48:21;11.10;99.90
17529;DHT22;8882;53.192;8.184;2022-11-02T06:50:46;11.20;99.90
17529;DHT22;8882;53.192;8.184;2022-11-02T06:53:12;11.20;99.90
17529;DHT22;8882;53.192;8.184;2022-11-02T06:55:37;11.20;99.90
17529;DHT22;8882;53.192;8.184;2022-11-02T06:58:03;11.30;99.90
17529;DHT22;8882;53.192;8.184;2022-11-02T07:00:28;11.30;99.90
17529;DHT22;8882;53.192;8.184;2022-11-02T07:03:12;11.30;99.90
17529;DHT22;8882;53.192;8.184;2022-11-02T07:05:37;11.50;99.90
17529;DHT22;8882;53.192;8.184;2022-11-02T07:08:03;11.50;99.90
17529;DHT22;8882;53.192;8.184;2022-11-02T07:10:29;11.50;99.90
17529;DHT22;8882;53.192;8.184;2022-11-02T07:12:55;11.60;99.90
17529;DHT22;8882;53.192;8.184;2022-11-02T07:15:23;11.60;99.90
17529;DHT22;8882;53.192;8.184;2022-11-02T07:17:49;11.60;99.90
17529;DHT22;8882;53.192;8.184;2022-11-02T07:20:15;11.60;99.90
17529;DHT22;8882;53.192;8.184;2022-11-02T07:22:41;11.70;99.90
17529;DHT22;8882;53.192;8.184;2022-11-02T07:25:06;11.70;99.90
17529;DHT22;8882;53.192;8.184;2022-11-02T07:27:38;11.70;99.90
17529;DHT22;8882;53.192;8.184;2022-11-02T07:30:04;11.70;99.90
17529;DHT22;8882;53.192;8.184;2022-11-02T07:32:29;11.70;99.90
17529;DHT22;8882;53.192;8.184;2022-11-02T07:34:55;11.70;99.90
17529;DHT22;8882;53.192;8.184;2022-11-02T07:37:20;11.70;99.90
17529;DHT22;8882;53.192;8.184;2022-11-02T07:39:46;11.70;99.90
17529;DHT22;8882;53.192;8.184;2022-11-02T07:42:11;11.70;99.90
17529;DHT22;8882;53.192;8.184;2022-11-02T07:44:37;11.70;99.90
17529;DHT22;8882;53.192;8.184;2022-11-02T07:47:03;11.80;99.90
17529;DHT22;8882;53.192;8.184;2022-11-02T07:49:28;11.80;99.90
17529;DHT22;8882;53.192;8.184;2022-11-02T07:51:55;11.90;99.90
17529;DHT22;8882;53.192;8.184;2022-11-02T07:54:20;11.90;99.90
17529;DHT22;8882;53.192;8.184;2022-11-02T07:56:46;11.90;99.90
17529;DHT22;8882;53.192;8.184;2022-11-02T07:59:11;11.90;99.90
17529;DHT22;8882;53.192;8.184;2022-11-02T08:01:37;11.90;99.90
17529;DHT22;8882;53.192;8.184;2022-11-02T08:04:03;12.00;99.90
17529;DHT22;8882;53.192;8.184;2022-11-02T08:06:28;12.00;99.90
17529;DHT22;8882;53.192;8.184;2022-11-02T08:08:54;12.00;99.90
17529;DHT22;8882;53.192;8.184;2022-11-02T08:11:19;12.10;99.90
17529;DHT22;8882;53.192;8.184;2022-11-02T08:13:45;12.10;99.90
17529;DHT22;8882;53.192;8.184;2022-11-02T08:16:10;12.20;99.90
17529;DHT22;8882;53.192;8.184;2022-11-02T08:18:36;12.30;99.90
17529;DHT22;8882;53.192;8.184;2022-11-02T08:21:02;12.30;99.90
17529;DHT22;8882;53.192;8.184;2022-11-02T08:23:28;12.30;99.90
17529;DHT22;8882;53.192;8.184;2022-11-02T08:25:56;12.30;99.90
17529;DHT22;8882;53.192;8.184;2022-11-02T08:28:28;12.30;99.90
17529;DHT22;8882;53.192;8.184;2022-11-02T08:30:57;12.30;99.90
17529;DHT22;8882;53.192;8.184;2022-11-02T08:33:23;12.40;99.90
17529;DHT22;8882;53.192;8.184;2022-11-02T08:35:49;12.40;99.90
17529;DHT22;8882;53.192;8.184;2022-11-02T08:38:15;12.40;99.90
17529;DHT22;8882;53.192;8.184;2022-11-02T08:40:41;12.40;99.90
17529;DHT22;8882;53.192;8.184;2022-11-02T08:43:09;12.40;99.90
17529;DHT22;8882;53.192;8.184;2022-11-02T08:45:36;12.40;99.90
17529;DHT22;8882;53.192;8.184;2022-11-02T08:48:03;12.40;99.90
17529;DHT22;8882;53.192;8.184;2022-11-02T08:50:28;12.50;99.90
17529;DHT22;8882;53.192;8.184;2022-11-02T08:52:54;12.50;99.90
17529;DHT22;8882;53.192;8.184;2022-11-02T08:55:20;12.50;99.90
17529;DHT22;8882;53.192;8.184;2022-11-02T08:57:46;12.40;99.90
17529;DHT22;8882;53.192;8.184;2022-11-02T09:00:12;12.40;99.90
17529;DHT22;8882;53.192;8.184;2022-11-02T09:02:38;12.40;99.90
17529;DHT22;8882;53.192;8.184;2022-11-02T09:05:04;12.40;99.90
17529;DHT22;8882;53.192;8.184;2022-11-02T09:07:29;12.40;99.90
17529;DHT22;8882;53.192;8.184;2022-11-02T09:09:55;12.40;99.90
17529;DHT22;8882;53.192;8.184;2022-11-02T09:12:20;12.50;99.90
17529;DHT22;8882;53.192;8.184;2022-11-02T09:14:46;12.50;99.90
17529;DHT22;8882;53.192;8.184;2022-11-02T09:17:11;12.50;99.90
17529;DHT22;8882;53.192;8.184;2022-11-02T09:19:37;12.60;99.90
17529;DHT22;8882;53.192;8.184;2022-11-02T09:22:02;12.60;99.90
17529;DHT22;8882;53.192;8.184;2022-11-02T09:24:28;12.60;99.90
17529;DHT22;8882;53.192;8.184;2022-11-02T09:26:53;12.70;99.90
17529;DHT22;8882;53.192;8.184;2022-11-02T09:29:19;12.70;99.90
17529;DHT22;8882;53.192;8.184;2022-11-02T09:31:44;12.80;99.90
17529;DHT22;8882;53.192;8.184;2022-11-02T09:34:13;12.80;99.90
17529;DHT22;8882;53.192;8.184;2022-11-02T09:36:39;12.70;99.90
17529;DHT22;8882;53.192;8.184;2022-11-02T09:39:04;12.70;99.90
17529;DHT22;8882;53.192;8.184;2022-11-02T09:41:37;12.60;99.90
17529;DHT22;8882;53.192;8.184;2022-11-02T09:44:28;12.70;99.90
17529;DHT22;8882;53.192;8.184;2022-11-02T09:46:58;12.90;99.90
17529;DHT22;8882;53.192;8.184;2022-11-02T09:49:27;12.90;99.90
17529;DHT22;8882;53.192;8.184;2022-11-02T09:51:55;12.90;99.90
17529;DHT22;8882;53.192;8.184;2022-11-02T09:54:28;13.10;99.90
17529;DHT22;8882;53.192;8.184;2022-11-02T09:56:58;13.20;99.90
17529;DHT22;8882;53.192;8.184;2022-11-02T09:59:26;13.20;99.90
17529;DHT22;8882;53.192;8.184;2022-11-02T10:02:03;13.20;99.90
17529;DHT22;8882;53.192;8.184;2022-11-02T10:10:16;13.30;99.90
17529;DHT22;8882;53.192;8.184;2022-11-02T10:15:38;13.20;99.90
17529;DHT22;8882;53.192;8.184;2022-11-02T10:18:12;13.20;99.90
17529;DHT22;8882;53.192;8.184;2022-11-02T10:20:43;13.20;99.90
17529;DHT22;8882;53.192;8.184;2022-11-02T10:23:23;13.30;99.90
17529;DHT22;8882;53.192;8.184;2022-11-02T10:25:50;13.30;99.90
17529;DHT22;8882;53.192;8.184;2022-11-02T10:28:19;13.20;99.90
17529;DHT22;8882;53.192;8.184;2022-11-02T10:30:45;13.30;99.90
17529;DHT22;8882;53.192;8.184;2022-11-02T10:33:22;13.20;99.90
17529;DHT22;8882;53.192;8.184;2022-11-02T10:39:05;13.20;99.90
17529;DHT22;8882;53.192;8.184;2022-11-02T10:52:12;13.30;99.90
17529;DHT22;8882;53.192;8.184;2022-11-02T10:54:38;13.30;99.90
17529;DHT22;8882;53.192;8.184;2022-11-02T10:57:13;13.30;99.90
17529;DHT22;8882;53.192;8.184;2022-11-02T10:59:42;13.20;99.90
17529;DHT22;8882;53.192;8.184;2022-11-02T11:02:13;13.40;99.90
17529;DHT22;8882;53.192;8.184;2022-11-02T11:04:39;13.50;99.90
17529;DHT22;8882;53.192;8.184;2022-11-02T11:07:13;13.60;99.90
17529;DHT22;8882;53.192;8.184;2022-11-02T11:09:56;13.60;99.90
17529;DHT22;8882;53.192;8.184;2022-11-02T11:12:29;13.70;99.90
17529;DHT22;8882;53.192;8.184;2022-11-02T11:14:57;13.80;99.90
17529;DHT22;8882;53.192;8.184;2022-11-02T11:17:27;13.80;99.90
17529;DHT22;8882;53.192;8.184;2022-11-02T11:19:55;13.70;99.90
17529;DHT22;8882;53.192;8.184;2022-11-02T11:22:24;13.70;99.90
17529;DHT22;8882;53.192;8.184;2022-11-02T11:24:50;13.70;99.90
17529;DHT22;8882;53.192;8.184;2022-11-02T11:27:22;13.80;99.90
17529;DHT22;8882;53.192;8.184;2022-11-02T11:29:57;13.80;99.90
17529;DHT22;8882;53.192;8.184;2022-11-02T11:32:27;13.80;99.90
17529;DHT22;8882;53.192;8.184;2022-11-02T11:34:58;13.80;99.90
17529;DHT22;8882;53.192;8.184;2022-11-02T11:37:25;13.70;99.90
17529;DHT22;8882;53.192;8.184;2022-11-02T11:40:19;13.80;99.90
17529;DHT22;8882;53.192;8.184;2022-11-02T11:42:47;14.00;99.90
17529;DHT22;8882;53.192;8.184;2022-11-02T11:45:52;14.10;99.90
17529;DHT22;8882;53.192;8.184;2022-11-02T11:51:00;14.00;99.90
17529;DHT22;8882;53.192;8.184;2022-11-02T11:53:26;14.10;99.90
17529;DHT22;8882;53.192;8.184;2022-11-02T11:55:58;14.20;99.90
17529;DHT22;8882;53.192;8.184;2022-11-02T11:58:34;14.30;99.90
17529;DHT22;8882;53.192;8.184;2022-11-02T12:03:55;14.40;99.90
17529;DHT22;8882;53.192;8.184;2022-11-02T12:09:36;14.50;99.90
17529;DHT22;8882;53.192;8.184;2022-11-02T12:12:36;14.50;99.90
17529;DHT22;8882;53.192;8.184;2022-11-02T12:26:19;14.30;99.90
17529;DHT22;8882;53.192;8.184;2022-11-02T12:43:01;14.40;99.90
17529;DHT22;8882;53.192;8.184;2022-11-02T12:48:28;14.30;99.90
17529;DHT22;8882;53.192;8.184;2022-11-02T12:51:11;14.40;99.90
17529;DHT22;8882;53.192;8.184;2022-11-02T12:53:56;14.70;99.90
17529;DHT22;8882;53.192;8.184;2022-11-02T12:59:02;14.90;99.90
17529;DHT22;8882;53.192;8.184;2022-11-02T13:01:34;14.90;99.90
17529;DHT22;8882;53.192;8.184;2022-11-02T13:04:19;14.90;99.90
17529;DHT22;8882;53.192;8.184;2022-11-02T13:06:51;14.90;99.90
17529;DHT22;8882;53.192;8.184;2022-11-02T13:09:35;14.90;99.90
17529;DHT22;8882;53.192;8.184;2022-11-02T13:12:06;15.00;99.90
17529;DHT22;8882;53.192;8.184;2022-11-02T13:14:47;15.00;99.90
17529;DHT22;8882;53.192;8.184;2022-11-02T13:17:38;14.80;99.90
17529;DHT22;8882;53.192;8.184;2022-11-02T13:22:47;14.70;99.90
17529;DHT22;8882;53.192;8.184;2022-11-02T13:25:25;14.70;99.90
17529;DHT22;8882;53.192;8.184;2022-11-02T13:27:58;14.70;99.90
17529;DHT22;8882;53.192;8.184;2022-11-02T13:30:25;14.60;99.90
17529;DHT22;8882;53.192;8.184;2022-11-02T13:35:39;14.60;99.90
17529;DHT22;8882;53.192;8.184;2022-11-02T13:49:04;14.50;99.90
17529;DHT22;8882;53.192;8.184;2022-11-02T13:51:44;14.50;99.90
17529;DHT22;8882;53.192;8.184;2022-11-02T13:56:46;14.40;99.90
17529;DHT22;8882;53.192;8.184;2022-11-02T13:59:24;14.30;99.90
17529;DHT22;8882;53.192;8.184;2022-11-02T14:01:52;14.10;99.90
17529;DHT22;8882;53.192;8.184;2022-11-02T14:04:18;14.10;99.90
17529;DHT22;8882;53.192;8.184;2022-11-02T14:07:00;14.10;99.90
17529;DHT22;8882;53.192;8.184;2022-11-02T14:09:31;14.10;99.90
17529;DHT22;8882;53.192;8.184;2022-11-02T14:14:42;14.20;99.90
17529;DHT22;8882;53.192;8.184;2022-11-02T14:17:17;14.20;99.90
17529;DHT22;8882;53.192;8.184;2022-11-02T14:22:13;14.10;99.90
17529;DHT22;8882;53.192;8.184;2022-11-02T14:32:34;13.90;99.90
17529;DHT22;8882;53.192;8.184;2022-11-02T14:41:08;13.90;99.90
17529;DHT22;8882;53.192;8.184;2022-11-02T14:50:17;14.00;99.90
17529;DHT22;8882;53.192;8.184;2022-11-02T14:52:26;14.00;99.90
17529;DHT22;8882;53.192;8.184;2022-11-02T14:55:03;13.90;99.90
17529;DHT22;8882;53.192;8.184;2022-11-02T15:00:00;13.80;99.90
17529;DHT22;8882;53.192;8.184;2022-11-02T15:02:33;13.70;99.90
17529;DHT22;8882;53.192;8.184;2022-11-02T15:05:02;13.60;99.90
17529;DHT22;8882;53.192;8.184;2022-11-02T15:07:33;13.60;99.90
17529;DHT22;8882;53.192;8.184;2022-11-02T15:12:48;13.60;99.90
17529;DHT22;8882;53.192;8.184;2022-11-02T15:15:32;13.50;99.90
17529;DHT22;8882;53.192;8.184;2022-11-02T15:20:42;13.40;99.90
17529;DHT22;8882;53.192;8.184;2022-11-02T15:23:24;13.30;99.90
17529;DHT22;8882;53.192;8.184;2022-11-02T15:25:53;13.30;99.90
17529;DHT22;8882;53.192;8.184;2022-11-02T15:28:24;13.20;99.90
17529;DHT22;8882;53.192;8.184;2022-11-02T15:30:52;13.10;99.90
17529;DHT22;8882;53.192;8.184;2022-11-02T15:33:23;13.00;99.90
17529;DHT22;8882;53.192;8.184;2022-11-02T15:35:52;12.90;99.90
17529;DHT22;8882;53.192;8.184;2022-11-02T15:38:22;12.90;99.90
17529;DHT22;8882;53.192;8.184;2022-11-02T15:40:55;12.80;99.90
17529;DHT22;8882;53.192;8.184;2022-11-02T15:46:12;12.70;99.90
17529;DHT22;8882;53.192;8.184;2022-11-02T15:54:21;12.50;99.90
17529;DHT22;8882;53.192;8.184;2022-11-02T15:57:15;12.50;99.90
17529;DHT22;8882;53.192;8.184;2022-11-02T15:59:57;12.40;99.90
17529;DHT22;8882;53.192;8.184;2022-11-02T16:02:38;12.40;99.90
17529;DHT22;8882;53.192;8.184;2022-11-02T16:05:04;12.40;99.90
17529;DHT22;8882;53.192;8.184;2022-11-02T16:07:30;12.40;99.90
17529;DHT22;8882;53.192;8.184;2022-11-02T16:10:19;12.30;99.90
17529;DHT22;8882;53.192;8.184;2022-11-02T16:12:45;12.40;99.90
17529;DHT22;8882;53.192;8.184;2022-11-02T16:15:16;12.30;99.90
17529;DHT22;8882;53.192;8.184;2022-11-02T16:17:46;12.20;99.90
17529;DHT22;8882;53.192;8.184;2022-11-02T16:20:29;12.20;99.90
17529;DHT22;8882;53.192;8.184;2022-11-02T16:23:05;12.10;99.90
17529;DHT22;8882;53.192;8.184;2022-11-02T16:25:45;12.00;99.90
17529;DHT22;8882;53.192;8.184;2022-11-02T16:28:23;12.00;99.90
17529;DHT22;8882;53.192;8.184;2022-11-02T16:33:24;11.90;99.90
17529;DHT22;8882;53.192;8.184;2022-11-02T16:35:51;11.90;99.90
17529;DHT22;8882;53.192;8.184;2022-11-02T16:38:18;11.90;99.90
17529;DHT22;8882;53.192;8.184;2022-11-02T16:40:44;11.90;99.90
17529;DHT22;8882;53.192;8.184;2022-11-02T16:43:13;11.80;99.90
17529;DHT22;8882;53.192;8.184;2022-11-02T16:45:40;11.70;99.90
17529;DHT22;8882;53.192;8.184;2022-11-02T16:48:17;11.70;99.90
17529;DHT22;8882;53.192;8.184;2022-11-02T16:51:02;11.70;99.90
17529;DHT22;8882;53.192;8.184;2022-11-02T16:53:32;11.60;99.90
17529;DHT22;8882;53.192;8.184;2022-11-02T16:56:21;11.50;99.90
17529;DHT22;8882;53.192;8.184;2022-11-02T16:58:58;11.50;99.90
17529;DHT22;8882;53.192;8.184;2022-11-02T17:01:26;11.50;99.90
17529;DHT22;8882;53.192;8.184;2022-11-02T17:03:53;11.40;99.90
17529;DHT22;8882;53.192;8.184;2022-11-02T17:06:19;11.40;99.90
17529;DHT22;8882;53.192;8.184;2022-11-02T17:08:51;11.50;99.90
17529;DHT22;8882;53.192;8.184;2022-11-02T17:11:17;11.50;99.90
17529;DHT22;8882;53.192;8.184;2022-11-02T17:16:15;11.30;99.90
17529;DHT22;8882;53.192;8.184;2022-11-02T17:18:40;11.30;99.90
17529;DHT22;8882;53.192;8.184;2022-11-02T17:23:43;11.20;99.90
17529;DHT22;8882;53.192;8.184;2022-11-02T17:26:23;11.20;99.90
17529;DHT22;8882;53.192;8.184;2022-11-02T17:33:50;11.20;99.90
17529;DHT22;8882;53.192;8.184;2022-11-02T17:36:16;11.20;99.90
17529;DHT22;8882;53.192;8.184;2022-11-02T17:38:43;11.20;99.90
17529;DHT22;8882;53.192;8.184;2022-11-02T17:41:11;11.10;99.90
17529;DHT22;8882;53.192;8.184;2022-11-02T17:43:57;11.10;99.90
17529;DHT22;8882;53.192;8.184;2022-11-02T17:48:21;11.10;99.90
17529;DHT22;8882;53.192;8.184;2022-11-02T17:50:51;11.10;99.90
17529;DHT22;8882;53.192;8.184;2022-11-02T17:53:17;11.10;99.90
17529;DHT22;8882;53.192;8.184;2022-11-02T17:55:43;11.00;99.90
17529;DHT22;8882;53.192;8.184;2022-11-02T17:58:09;11.00;99.90
17529;DHT22;8882;53.192;8.184;2022-11-02T18:00:35;10.90;99.90
17529;DHT22;8882;53.192;8.184;2022-11-02T18:03:01;11.00;99.90
17529;DHT22;8882;53.192;8.184;2022-11-02T18:05:27;10.90;99.90
17529;DHT22;8882;53.192;8.184;2022-11-02T18:07:54;10.80;99.90
17529;DHT22;8882;53.192;8.184;2022-11-02T18:10:23;10.80;99.90
17529;DHT22;8882;53.192;8.184;2022-11-02T18:12:49;10.90;99.90
17529;DHT22;8882;53.192;8.184;2022-11-02T18:15:19;10.80;99.90
17529;DHT22;8882;53.192;8.184;2022-11-02T18:17:46;10.80;99.90
17529;DHT22;8882;53.192;8.184;2022-11-02T18:20:12;10.80;99.90
17529;DHT22;8882;53.192;8.184;2022-11-02T18:30:42;10.80;99.90
17529;DHT22;8882;53.192;8.184;2022-11-02T18:33:08;10.90;99.90
17529;DHT22;8882;53.192;8.184;2022-11-02T18:35:35;10.80;99.90
17529;DHT22;8882;53.192;8.184;2022-11-02T18:38:01;10.80;99.90
17529;DHT22;8882;53.192;8.184;2022-11-02T18:40:26;10.80;99.90
17529;DHT22;8882;53.192;8.184;2022-11-02T18:42:52;10.80;99.90
17529;DHT22;8882;53.192;8.184;2022-11-02T18:45:17;10.80;99.90
17529;DHT22;8882;53.192;8.184;2022-11-02T18:47:43;10.80;99.90
17529;DHT22;8882;53.192;8.184;2022-11-02T18:50:11;10.80;99.90
17529;DHT22;8882;53.192;8.184;2022-11-02T18:52:37;10.80;99.90
17529;DHT22;8882;53.192;8.184;2022-11-02T18:55:02;10.70;99.90
17529;DHT22;8882;53.192;8.184;2022-11-02T18:57:30;10.80;99.90
17529;DHT22;8882;53.192;8.184;2022-11-02T18:59:56;10.80;99.90
17529;DHT22;8882;53.192;8.184;2022-11-02T19:02:22;10.70;99.90
17529;DHT22;8882;53.192;8.184;2022-11-02T19:04:48;10.70;99.90
17529;DHT22;8882;53.192;8.184;2022-11-02T19:07:13;10.70;99.90
17529;DHT22;8882;53.192;8.184;2022-11-02T19:09:57;10.70;99.90
17529;DHT22;8882;53.192;8.184;2022-11-02T19:12:27;10.70;99.90
17529;DHT22;8882;53.192;8.184;2022-11-02T19:14:53;10.70;99.90
17529;DHT22;8882;53.192;8.184;2022-11-02T19:17:19;10.70;99.90
17529;DHT22;8882;53.192;8.184;2022-11-02T19:19:45;10.70;99.90
17529;DHT22;8882;53.192;8.184;2022-11-02T19:22:14;10.70;99.90
17529;DHT22;8882;53.192;8.184;2022-11-02T19:24:40;10.70;99.90
17529;DHT22;8882;53.192;8.184;2022-11-02T19:27:06;10.70;99.90
17529;DHT22;8882;53.192;8.184;2022-11-02T19:29:32;10.70;99.90
17529;DHT22;8882;53.192;8.184;2022-11-02T19:31:58;10.70;99.90
17529;DHT22;8882;53.192;8.184;2022-11-02T19:34:24;10.70;99.90
17529;DHT22;8882;53.192;8.184;2022-11-02T19:36:49;10.70;99.90
17529;DHT22;8882;53.192;8.184;2022-11-02T19:39:15;10.70;99.90
17529;DHT22;8882;53.192;8.184;2022-11-02T19:41:40;10.70;99.90
17529;DHT22;8882;53.192;8.184;2022-11-02T19:44:06;10.60;99.90
17529;DHT22;8882;53.192;8.184;2022-11-02T19:46:32;10.60;99.90
17529;DHT22;8882;53.192;8.184;2022-11-02T19:48:57;10.60;99.90
17529;DHT22;8882;53.192;8.184;2022-11-02T19:51:28;10.70;99.90
17529;DHT22;8882;53.192;8.184;2022-11-02T19:53:56;10.60;99.90
17529;DHT22;8882;53.192;8.184;2022-11-02T19:56:23;10.60;99.90
17529;DHT22;8882;53.192;8.184;2022-11-02T19:58:50;10.60;99.90
17529;DHT22;8882;53.192;8.184;2022-11-02T20:01:24;10.60;99.90
17529;DHT22;8882;53.192;8.184;2022-11-02T20:03:51;10.60;99.90
17529;DHT22;8882;53.192;8.184;2022-11-02T20:06:19;10.60;99.90
17529;DHT22;8882;53.192;8.184;2022-11-02T20:08:48;10.50;99.90
17529;DHT22;8882;53.192;8.184;2022-11-02T20:11:14;10.60;99.90
17529;DHT22;8882;53.192;8.184;2022-11-02T20:13:41;10.50;99.90
17529;DHT22;8882;53.192;8.184;2022-11-02T20:16:09;10.50;99.90
17529;DHT22;8882;53.192;8.184;2022-11-02T20:18:36;10.50;99.90
17529;DHT22;8882;53.192;8.184;2022-11-02T20:21:14;10.50;99.90
17529;DHT22;8882;53.192;8.184;2022-11-02T20:23:40;10.50;99.90
17529;DHT22;8882;53.192;8.184;2022-11-02T20:26:12;10.50;99.90
17529;DHT22;8882;53.192;8.184;2022-11-02T20:28:40;10.50;99.90
17529;DHT22;8882;53.192;8.184;2022-11-02T20:31:25;10.50;99.90
17529;DHT22;8882;53.192;8.184;2022-11-02T20:33:51;10.50;99.90
17529;DHT22;8882;53.192;8.184;2022-11-02T20:36:16;10.50;99.90
17529;DHT22;8882;53.192;8.184;2022-11-02T20:38:42;10.50;99.90
17529;DHT22;8882;53.192;8.184;2022-11-02T20:41:11;10.50;99.90
17529;DHT22;8882;53.192;8.184;2022-11-02T20:43:40;10.50;99.90
17529;DHT22;8882;53.192;8.184;2022-11-02T20:46:17;10.40;99.90
17529;DHT22;8882;53.192;8.184;2022-11-02T20:48:45;10.50;99.90
17529;DHT22;8882;53.192;8.184;2022-11-02T20:51:15;10.40;99.90
17529;DHT22;8882;53.192;8.184;2022-11-02T20:53:40;10.50;99.90
17529;DHT22;8882;53.192;8.184;2022-11-02T20:56:06;10.40;99.90
17529;DHT22;8882;53.192;8.184;2022-11-02T20:58:32;10.40;99.90
17529;DHT22;8882;53.192;8.184;2022-11-02T21:00:57;10.40;99.90
17529;DHT22;8882;53.192;8.184;2022-11-02T21:03:23;10.40;99.90
17529;DHT22;8882;53.192;8.184;2022-11-02T21:05:49;10.40;99.90
17529;DHT22;8882;53.192;8.184;2022-11-02T21:08:15;10.30;99.90
17529;DHT22;8882;53.192;8.184;2022-11-02T21:10:41;10.40;99.90
17529;DHT22;8882;53.192;8.184;2022-11-02T21:13:09;10.40;99.90
17529;DHT22;8882;53.192;8.184;2022-11-02T21:15:54;10.40;99.90
17529;DHT22;8882;53.192;8.184;2022-11-02T21:18:20;10.30;99.90
17529;DHT22;8882;53.192;8.184;2022-11-02T21:20:45;10.30;99.90
17529;DHT22;8882;53.192;8.184;2022-11-02T21:23:11;10.40;99.90
17529;DHT22;8882;53.192;8.184;2022-11-02T21:25:37;10.30;99.90
17529;DHT22;8882;53.192;8.184;2022-11-02T21:28:03;10.20;99.90
17529;DHT22;8882;53.192;8.184;2022-11-02T21:30:28;10.30;99.90
17529;DHT22;8882;53.192;8.184;2022-11-02T21:32:55;10.30;99.90
17529;DHT22;8882;53.192;8.184;2022-11-02T21:35:21;10.30;99.90
17529;DHT22;8882;53.192;8.184;2022-11-02T21:37:47;10.30;99.90
17529;DHT22;8882;53.192;8.184;2022-11-02T21:40:12;10.30;99.90
17529;DHT22;8882;53.192;8.184;2022-11-02T21:42:39;10.30;99.90
17529;DHT22;8882;53.192;8.184;2022-11-02T21:45:05;10.30;99.90
17529;DHT22;8882;53.192;8.184;2022-11-02T21:47:31;10.30;99.90
17529;DHT22;8882;53.192;8.184;2022-11-02T21:50:09;10.30;99.90
17529;DHT22;8882;53.192;8.184;2022-11-02T21:52:36;10.30;99.90
17529;DHT22;8882;53.192;8.184;2022-11-02T21:55:03;10.30;99.90
17529;DHT22;8882;53.192;8.184;2022-11-02T21:57:28;10.30;99.90
17529;DHT22;8882;53.192;8.184;2022-11-02T21:59:55;10.30;99.90
